Mammoth Cave National Park, KY

8:38 PM CST op 26 november 2014 (GMT -0600)
Ridgeview Drive | Change Station
CLOSE
Current Station
Persoonlijk weerstation
Location: Bowling Green, KY
Geometrische hoogte: 650 ft
Nabije weerstations
Actief advies: Special Statement

Hoogte 650 ft 36.99 °N, 86.52 °W | Updated 0 second ago

Sneeuw
Sneeuw
37.0 °F
Voelt als 37 °F
N
0.0
Wind Variabel Wind van WZW
Gusts 0.0 mijl/u

Vandaag
Hoog -- | Laag -- °F
--% Kans op neerslag
Gisteren
Hoog -- | Laag -- °F
Precip. -- inches
6:35 AM 4:30 PM
Wassende halvemaan, 25% visible
Druk 30.03 inches
Zicht 7.0 mijlen
Wolken Merendeels bewolkt 1300 ft
Geheel bewolkt 2100 ft
Gevoelstemperatuur 37 °F
Dauwpunt 35 °F
Vochtigheid 94%
Neerslag 0.09 inches
Dikte sneeuw Niet beschikbaar.
UV 0 van de 12
Pollen .10 van de 12
Luchtkwaliteit Niet beschikbaar.
Flu Activity Niet beschikbaar.
SPECI KBWG 270204Z AUTO 00000KT 7SM -RA BKN013 OVC021 04/02 A3003 RMK AO2 P0001 T00390017

More Conditions Fewer Conditions

Druk 30.03 inches
Zicht 7.0 mijlen
Wolken Merendeels bewolkt 1300 ft
Geheel bewolkt 2100 ft
Gevoelstemperatuur 37 °F
Dauwpunt 35 °F
Vochtigheid 94%
Neerslag 0.09 inches
Dikte sneeuw Niet beschikbaar.
UV 0 van de 12
Pollen .10 van de 12
Luchtkwaliteit Niet beschikbaar.
Flu Activity Niet beschikbaar.
SPECI KBWG 270204Z AUTO 00000KT 7SM -RA BKN013 OVC021 04/02 A3003 RMK AO2 P0001 T00390017

More Conditions Fewer Conditions

10-Day Weather Forecast

Almanac

Astronomie

Nov. 26, 2014 Opkomst Ondergang
Werkelijke tijd
Burgerlijke schemering
Nautische schemering
Astronomische schemering
Maan
Golflengte van het zichtbare licht
Daglengte
Tomorrow will be .
, % of the Moon is Illuminated

Extremen vandaag

State Highs State Lows

Community

WunderPhotos

Upload Photos

1,773,948 foto’s ge-upload!

WunderBlogs® & News

Nearby

Luchtkwaliteit

  Luchtkwaliteit LK-index Verontreinigende stof
Not available.

Dikte sneeuw

Station Depth Geometrische hoogte

Aardbevingen

Stad Distance Mag. Time & Date
Minimum magnitude displayed is 2.5.

Watertemperatuur langs de kust

Plaats Temperatuur

Nabije weerstations